sensor_id;sensor_type;location;lat;lon;timestamp;P1;durP1;ratioP1;P2;durP2;ratioP2
25439;SDS011;13365;52.208;5.488;2023-07-29T00:00:44;2.60;;;1.70;;
25439;SDS011;13365;52.208;5.488;2023-07-29T00:03:10;2.22;;;1.40;;
25439;SDS011;13365;52.208;5.488;2023-07-29T00:05:38;3.72;;;2.13;;
25439;SDS011;13365;52.208;5.488;2023-07-29T00:08:05;3.67;;;1.80;;
25439;SDS011;13365;52.208;5.488;2023-07-29T00:10:31;2.85;;;1.27;;
25439;SDS011;13365;52.208;5.488;2023-07-29T00:12:58;3.15;;;1.63;;
25439;SDS011;13365;52.208;5.488;2023-07-29T00:15:23;2.65;;;1.23;;
25439;SDS011;13365;52.208;5.488;2023-07-29T00:17:49;3.17;;;1.45;;
25439;SDS011;13365;52.208;5.488;2023-07-29T00:20:15;2.78;;;1.30;;
25439;SDS011;13365;52.208;5.488;2023-07-29T00:22:41;9.48;;;2.10;;
25439;SDS011;13365;52.208;5.488;2023-07-29T00:25:06;6.55;;;2.63;;
25439;SDS011;13365;52.208;5.488;2023-07-29T00:27:32;3.10;;;1.40;;
25439;SDS011;13365;52.208;5.488;2023-07-29T00:29:58;2.03;;;1.00;;
25439;SDS011;13365;52.208;5.488;2023-07-29T00:32:23;2.28;;;1.33;;
25439;SDS011;13365;52.208;5.488;2023-07-29T00:34:49;3.63;;;1.38;;
25439;SDS011;13365;52.208;5.488;2023-07-29T00:37:14;3.17;;;1.20;;
25439;SDS011;13365;52.208;5.488;2023-07-29T00:39:40;1.88;;;1.10;;
25439;SDS011;13365;52.208;5.488;2023-07-29T00:42:06;1.90;;;1.40;;
25439;SDS011;13365;52.208;5.488;2023-07-29T00:44:31;2.85;;;1.42;;
25439;SDS011;13365;52.208;5.488;2023-07-29T00:46:57;3.47;;;1.30;;
25439;SDS011;13365;52.208;5.488;2023-07-29T00:49:25;1.83;;;1.20;;
25439;SDS011;13365;52.208;5.488;2023-07-29T00:51:51;3.53;;;1.17;;
25439;SDS011;13365;52.208;5.488;2023-07-29T00:54:16;6.05;;;1.40;;
25439;SDS011;13365;52.208;5.488;2023-07-29T00:56:42;5.45;;;1.20;;
25439;SDS011;13365;52.208;5.488;2023-07-29T00:59:08;3.65;;;1.38;;
25439;SDS011;13365;52.208;5.488;2023-07-29T01:01:33;2.67;;;1.25;;
25439;SDS011;13365;52.208;5.488;2023-07-29T01:03:59;4.10;;;1.42;;
25439;SDS011;13365;52.208;5.488;2023-07-29T01:06:35;3.00;;;1.25;;
25439;SDS011;13365;52.208;5.488;2023-07-29T01:09:20;2.33;;;1.35;;
25439;SDS011;13365;52.208;5.488;2023-07-29T01:12:01;4.45;;;1.42;;
25439;SDS011;13365;52.208;5.488;2023-07-29T01:17:07;1.85;;;1.20;;
25439;SDS011;13365;52.208;5.488;2023-07-29T01:22:42;2.55;;;1.30;;
25439;SDS011;13365;52.208;5.488;2023-07-29T01:25:08;3.33;;;1.30;;
25439;SDS011;13365;52.208;5.488;2023-07-29T01:27:34;1.77;;;1.00;;
25439;SDS011;13365;52.208;5.488;2023-07-29T01:29:59;3.90;;;1.10;;
25439;SDS011;13365;52.208;5.488;2023-07-29T01:32:34;3.03;;;0.90;;
25439;SDS011;13365;52.208;5.488;2023-07-29T01:35:31;3.95;;;1.08;;
25439;SDS011;13365;52.208;5.488;2023-07-29T01:38:38;2.97;;;1.17;;
25439;SDS011;13365;52.208;5.488;2023-07-29T01:41:01;2.83;;;1.08;;
25439;SDS011;13365;52.208;5.488;2023-07-29T01:43:31;4.05;;;1.20;;
25439;SDS011;13365;52.208;5.488;2023-07-29T01:45:57;5.00;;;1.48;;
25439;SDS011;13365;52.208;5.488;2023-07-29T01:48:22;3.22;;;1.33;;
25439;SDS011;13365;52.208;5.488;2023-07-29T01:50:48;2.72;;;1.20;;
25439;SDS011;13365;52.208;5.488;2023-07-29T01:53:14;3.63;;;1.50;;
25439;SDS011;13365;52.208;5.488;2023-07-29T01:55:40;3.35;;;1.50;;
25439;SDS011;13365;52.208;5.488;2023-07-29T01:58:06;6.60;;;1.50;;
25439;SDS011;13365;52.208;5.488;2023-07-29T02:00:32;3.58;;;1.40;;
25439;SDS011;13365;52.208;5.488;2023-07-29T02:02:57;3.97;;;1.65;;
25439;SDS011;13365;52.208;5.488;2023-07-29T02:05:23;3.13;;;1.40;;
25439;SDS011;13365;52.208;5.488;2023-07-29T02:07:48;3.53;;;1.90;;
25439;SDS011;13365;52.208;5.488;2023-07-29T02:10:14;4.07;;;1.85;;
25439;SDS011;13365;52.208;5.488;2023-07-29T02:12:39;6.68;;;1.58;;
25439;SDS011;13365;52.208;5.488;2023-07-29T02:15:05;2.78;;;1.58;;
25439;SDS011;13365;52.208;5.488;2023-07-29T02:17:31;4.78;;;1.95;;
25439;SDS011;13365;52.208;5.488;2023-07-29T02:19:56;5.25;;;1.83;;
25439;SDS011;13365;52.208;5.488;2023-07-29T02:22:22;7.95;;;1.90;;
25439;SDS011;13365;52.208;5.488;2023-07-29T02:24:47;4.03;;;1.83;;
25439;SDS011;13365;52.208;5.488;2023-07-29T02:27:13;6.03;;;2.28;;
25439;SDS011;13365;52.208;5.488;2023-07-29T02:29:38;5.18;;;2.20;;
25439;SDS011;13365;52.208;5.488;2023-07-29T02:32:04;5.57;;;2.17;;
25439;SDS011;13365;52.208;5.488;2023-07-29T02:34:30;8.85;;;2.40;;
25439;SDS011;13365;52.208;5.488;2023-07-29T02:36:56;5.40;;;2.47;;
25439;SDS011;13365;52.208;5.488;2023-07-29T02:39:21;4.65;;;2.22;;
25439;SDS011;13365;52.208;5.488;2023-07-29T02:41:48;4.97;;;1.80;;
25439;SDS011;13365;52.208;5.488;2023-07-29T02:44:14;3.80;;;2.03;;
25439;SDS011;13365;52.208;5.488;2023-07-29T02:46:40;6.32;;;1.95;;
25439;SDS011;13365;52.208;5.488;2023-07-29T02:49:06;4.43;;;1.90;;
25439;SDS011;13365;52.208;5.488;2023-07-29T02:51:31;7.78;;;2.50;;
25439;SDS011;13365;52.208;5.488;2023-07-29T02:53:57;5.13;;;2.35;;
25439;SDS011;13365;52.208;5.488;2023-07-29T02:56:22;3.97;;;2.50;;
25439;SDS011;13365;52.208;5.488;2023-07-29T02:58:48;3.90;;;2.00;;
25439;SDS011;13365;52.208;5.488;2023-07-29T03:01:16;4.40;;;2.35;;
25439;SDS011;13365;52.208;5.488;2023-07-29T03:03:42;6.40;;;2.60;;
25439;SDS011;13365;52.208;5.488;2023-07-29T03:06:08;4.10;;;2.20;;
25439;SDS011;13365;52.208;5.488;2023-07-29T03:08:36;7.60;;;2.30;;
25439;SDS011;13365;52.208;5.488;2023-07-29T03:11:05;6.68;;;2.40;;
25439;SDS011;13365;52.208;5.488;2023-07-29T03:13:32;12.40;;;2.80;;
25439;SDS011;13365;52.208;5.488;2023-07-29T03:16:08;4.22;;;2.65;;
25439;SDS011;13365;52.208;5.488;2023-07-29T03:18:35;9.15;;;3.03;;
25439;SDS011;13365;52.208;5.488;2023-07-29T03:21:01;6.63;;;2.50;;
25439;SDS011;13365;52.208;5.488;2023-07-29T03:23:28;7.65;;;2.90;;
25439;SDS011;13365;52.208;5.488;2023-07-29T03:25:57;10.65;;;3.15;;
25439;SDS011;13365;52.208;5.488;2023-07-29T03:28:28;7.32;;;3.17;;
25439;SDS011;13365;52.208;5.488;2023-07-29T03:30:54;8.02;;;3.08;;
25439;SDS011;13365;52.208;5.488;2023-07-29T03:33:20;6.25;;;3.55;;
25439;SDS011;13365;52.208;5.488;2023-07-29T03:35:46;5.25;;;3.08;;
25439;SDS011;13365;52.208;5.488;2023-07-29T03:38:12;6.75;;;3.35;;
25439;SDS011;13365;52.208;5.488;2023-07-29T03:40:38;7.32;;;2.83;;
25439;SDS011;13365;52.208;5.488;2023-07-29T03:43:04;9.50;;;3.30;;
25439;SDS011;13365;52.208;5.488;2023-07-29T03:45:29;6.50;;;2.97;;
25439;SDS011;13365;52.208;5.488;2023-07-29T03:47:55;7.10;;;3.10;;
25439;SDS011;13365;52.208;5.488;2023-07-29T03:50:21;10.10;;;3.15;;
25439;SDS011;13365;52.208;5.488;2023-07-29T03:52:46;5.38;;;2.58;;
25439;SDS011;13365;52.208;5.488;2023-07-29T03:55:12;5.63;;;2.95;;
25439;SDS011;13365;52.208;5.488;2023-07-29T03:57:37;6.85;;;3.60;;
25439;SDS011;13365;52.208;5.488;2023-07-29T04:00:03;4.57;;;3.00;;
25439;SDS011;13365;52.208;5.488;2023-07-29T04:02:29;7.20;;;3.47;;
25439;SDS011;13365;52.208;5.488;2023-07-29T04:04:55;9.68;;;2.67;;
25439;SDS011;13365;52.208;5.488;2023-07-29T04:07:20;10.10;;;3.58;;
25439;SDS011;13365;52.208;5.488;2023-07-29T04:09:46;7.47;;;3.28;;
25439;SDS011;13365;52.208;5.488;2023-07-29T04:12:12;10.07;;;3.03;;
25439;SDS011;13365;52.208;5.488;2023-07-29T04:14:37;9.65;;;3.60;;
25439;SDS011;13365;52.208;5.488;2023-07-29T04:17:03;6.30;;;3.17;;
25439;SDS011;13365;52.208;5.488;2023-07-29T04:19:28;4.85;;;2.75;;
25439;SDS011;13365;52.208;5.488;2023-07-29T04:21:54;7.72;;;3.25;;
25439;SDS011;13365;52.208;5.488;2023-07-29T04:24:19;10.10;;;3.13;;
25439;SDS011;13365;52.208;5.488;2023-07-29T04:26:48;6.88;;;2.85;;
25439;SDS011;13365;52.208;5.488;2023-07-29T04:29:13;9.60;;;3.63;;
25439;SDS011;13365;52.208;5.488;2023-07-29T04:31:39;6.57;;;3.28;;
25439;SDS011;13365;52.208;5.488;2023-07-29T04:34:04;7.22;;;2.97;;
25439;SDS011;13365;52.208;5.488;2023-07-29T04:36:30;7.40;;;3.40;;
25439;SDS011;13365;52.208;5.488;2023-07-29T04:38:55;12.40;;;2.78;;
25439;SDS011;13365;52.208;5.488;2023-07-29T04:41:21;7.28;;;3.30;;
25439;SDS011;13365;52.208;5.488;2023-07-29T04:43:46;4.63;;;2.55;;
25439;SDS011;13365;52.208;5.488;2023-07-29T04:46:14;5.93;;;2.60;;
25439;SDS011;13365;52.208;5.488;2023-07-29T04:48:40;4.18;;;2.40;;
25439;SDS011;13365;52.208;5.488;2023-07-29T04:51:05;6.28;;;2.47;;
25439;SDS011;13365;52.208;5.488;2023-07-29T04:53:31;7.07;;;3.05;;
25439;SDS011;13365;52.208;5.488;2023-07-29T04:55:56;5.80;;;2.22;;
25439;SDS011;13365;52.208;5.488;2023-07-29T04:58:22;4.78;;;2.03;;
25439;SDS011;13365;52.208;5.488;2023-07-29T05:00:47;4.30;;;2.22;;
25439;SDS011;13365;52.208;5.488;2023-07-29T05:03:13;4.82;;;2.13;;
25439;SDS011;13365;52.208;5.488;2023-07-29T05:05:38;3.95;;;1.80;;
25439;SDS011;13365;52.208;5.488;2023-07-29T05:08:04;4.40;;;2.75;;
25439;SDS011;13365;52.208;5.488;2023-07-29T05:10:30;4.65;;;2.20;;
25439;SDS011;13365;52.208;5.488;2023-07-29T05:12:55;5.63;;;2.67;;
25439;SDS011;13365;52.208;5.488;2023-07-29T05:15:21;5.30;;;1.70;;
25439;SDS011;13365;52.208;5.488;2023-07-29T05:17:46;7.18;;;1.92;;
25439;SDS011;13365;52.208;5.488;2023-07-29T05:20:12;6.10;;;2.08;;
25439;SDS011;13365;52.208;5.488;2023-07-29T05:22:37;5.22;;;2.00;;
25439;SDS011;13365;52.208;5.488;2023-07-29T05:25:03;5.07;;;1.88;;
25439;SDS011;13365;52.208;5.488;2023-07-29T05:27:28;8.40;;;2.03;;
25439;SDS011;13365;52.208;5.488;2023-07-29T05:29:54;4.63;;;2.15;;
25439;SDS011;13365;52.208;5.488;2023-07-29T05:32:19;3.65;;;2.10;;
25439;SDS011;13365;52.208;5.488;2023-07-29T05:34:45;4.43;;;2.00;;
25439;SDS011;13365;52.208;5.488;2023-07-29T05:37:10;5.45;;;2.25;;
25439;SDS011;13365;52.208;5.488;2023-07-29T05:39:36;7.55;;;2.17;;
25439;SDS011;13365;52.208;5.488;2023-07-29T05:42:02;4.28;;;2.00;;
25439;SDS011;13365;52.208;5.488;2023-07-29T05:44:28;7.43;;;2.53;;
25439;SDS011;13365;52.208;5.488;2023-07-29T05:46:55;7.90;;;2.22;;
25439;SDS011;13365;52.208;5.488;2023-07-29T05:49:21;5.30;;;1.83;;
25439;SDS011;13365;52.208;5.488;2023-07-29T05:51:46;5.15;;;1.98;;
25439;SDS011;13365;52.208;5.488;2023-07-29T05:54:12;3.95;;;1.92;;
25439;SDS011;13365;52.208;5.488;2023-07-29T05:56:37;4.55;;;2.05;;
25439;SDS011;13365;52.208;5.488;2023-07-29T05:59:03;3.17;;;1.60;;
25439;SDS011;13365;52.208;5.488;2023-07-29T06:01:28;5.20;;;2.58;;
25439;SDS011;13365;52.208;5.488;2023-07-29T06:03:54;5.05;;;2.53;;
25439;SDS011;13365;52.208;5.488;2023-07-29T06:06:19;4.78;;;2.10;;
25439;SDS011;13365;52.208;5.488;2023-07-29T06:08:45;5.38;;;2.28;;
25439;SDS011;13365;52.208;5.488;2023-07-29T06:11:10;4.00;;;2.28;;
25439;SDS011;13365;52.208;5.488;2023-07-29T06:13:36;5.22;;;2.13;;
25439;SDS011;13365;52.208;5.488;2023-07-29T06:16:01;5.90;;;2.85;;
25439;SDS011;13365;52.208;5.488;2023-07-29T06:18:27;4.07;;;2.42;;
25439;SDS011;13365;52.208;5.488;2023-07-29T06:20:52;6.05;;;2.33;;
25439;SDS011;13365;52.208;5.488;2023-07-29T06:23:18;8.35;;;2.50;;
25439;SDS011;13365;52.208;5.488;2023-07-29T06:25:43;7.00;;;2.92;;
25439;SDS011;13365;52.208;5.488;2023-07-29T06:28:09;11.00;;;3.00;;
25439;SDS011;13365;52.208;5.488;2023-07-29T06:30:35;7.40;;;2.53;;
25439;SDS011;13365;52.208;5.488;2023-07-29T06:33:00;6.40;;;2.90;;
25439;SDS011;13365;52.208;5.488;2023-07-29T06:35:28;5.55;;;2.30;;
25439;SDS011;13365;52.208;5.488;2023-07-29T06:37:53;5.63;;;2.63;;
25439;SDS011;13365;52.208;5.488;2023-07-29T06:40:19;6.15;;;2.60;;
25439;SDS011;13365;52.208;5.488;2023-07-29T06:42:44;5.10;;;2.60;;
25439;SDS011;13365;52.208;5.488;2023-07-29T06:45:10;5.88;;;2.92;;
25439;SDS011;13365;52.208;5.488;2023-07-29T06:47:36;7.13;;;2.70;;
25439;SDS011;13365;52.208;5.488;2023-07-29T06:50:02;6.00;;;2.67;;
25439;SDS011;13365;52.208;5.488;2023-07-29T06:52:28;7.40;;;3.15;;
25439;SDS011;13365;52.208;5.488;2023-07-29T06:54:53;4.63;;;2.20;;
25439;SDS011;13365;52.208;5.488;2023-07-29T06:57:19;4.80;;;2.55;;
25439;SDS011;13365;52.208;5.488;2023-07-29T06:59:44;5.05;;;3.30;;
25439;SDS011;13365;52.208;5.488;2023-07-29T07:02:10;4.53;;;2.70;;
25439;SDS011;13365;52.208;5.488;2023-07-29T07:04:36;5.47;;;2.72;;
25439;SDS011;13365;52.208;5.488;2023-07-29T07:07:02;6.63;;;3.10;;
25439;SDS011;13365;52.208;5.488;2023-07-29T07:09:27;9.70;;;3.00;;
25439;SDS011;13365;52.208;5.488;2023-07-29T07:11:53;7.32;;;2.90;;
25439;SDS011;13365;52.208;5.488;2023-07-29T07:14:18;6.45;;;2.92;;
25439;SDS011;13365;52.208;5.488;2023-07-29T07:16:44;7.32;;;3.40;;
25439;SDS011;13365;52.208;5.488;2023-07-29T07:19:10;7.40;;;3.70;;
25439;SDS011;13365;52.208;5.488;2023-07-29T07:21:36;7.05;;;3.33;;
25439;SDS011;13365;52.208;5.488;2023-07-29T07:24:01;10.48;;;3.85;;
25439;SDS011;13365;52.208;5.488;2023-07-29T07:26:27;6.25;;;3.88;;
25439;SDS011;13365;52.208;5.488;2023-07-29T07:28:53;15.23;;;4.43;;
25439;SDS011;13365;52.208;5.488;2023-07-29T07:31:18;10.35;;;3.65;;
25439;SDS011;13365;52.208;5.488;2023-07-29T07:33:44;8.52;;;4.63;;
25439;SDS011;13365;52.208;5.488;2023-07-29T07:36:09;7.70;;;4.35;;
25439;SDS011;13365;52.208;5.488;2023-07-29T07:38:35;9.00;;;3.65;;
25439;SDS011;13365;52.208;5.488;2023-07-29T07:41:01;8.85;;;2.95;;
25439;SDS011;13365;52.208;5.488;2023-07-29T07:43:27;6.55;;;3.40;;
25439;SDS011;13365;52.208;5.488;2023-07-29T07:45:59;7.53;;;3.10;;
25439;SDS011;13365;52.208;5.488;2023-07-29T07:48:26;8.43;;;3.25;;
25439;SDS011;13365;52.208;5.488;2023-07-29T07:50:52;10.05;;;3.40;;
25439;SDS011;13365;52.208;5.488;2023-07-29T07:53:18;6.25;;;3.35;;
25439;SDS011;13365;52.208;5.488;2023-07-29T07:55:44;6.55;;;3.88;;
25439;SDS011;13365;52.208;5.488;2023-07-29T07:58:10;6.22;;;3.28;;
25439;SDS011;13365;52.208;5.488;2023-07-29T08:00:36;9.95;;;3.72;;
25439;SDS011;13365;52.208;5.488;2023-07-29T08:03:01;8.77;;;3.95;;
25439;SDS011;13365;52.208;5.488;2023-07-29T08:05:27;6.35;;;3.85;;
25439;SDS011;13365;52.208;5.488;2023-07-29T08:07:52;6.80;;;4.03;;
25439;SDS011;13365;52.208;5.488;2023-07-29T08:10:18;6.15;;;3.65;;
25439;SDS011;13365;52.208;5.488;2023-07-29T08:12:43;5.13;;;3.67;;
25439;SDS011;13365;52.208;5.488;2023-07-29T08:15:09;5.35;;;3.67;;
25439;SDS011;13365;52.208;5.488;2023-07-29T08:17:34;6.32;;;4.22;;
25439;SDS011;13365;52.208;5.488;2023-07-29T08:20:00;7.20;;;3.80;;
25439;SDS011;13365;52.208;5.488;2023-07-29T08:22:25;4.78;;;3.75;;
25439;SDS011;13365;52.208;5.488;2023-07-29T08:24:51;7.03;;;3.97;;
25439;SDS011;13365;52.208;5.488;2023-07-29T08:27:17;8.50;;;4.20;;
25439;SDS011;13365;52.208;5.488;2023-07-29T08:29:42;5.70;;;4.15;;
25439;SDS011;13365;52.208;5.488;2023-07-29T08:32:08;6.85;;;3.10;;
25439;SDS011;13365;52.208;5.488;2023-07-29T08:34:35;5.05;;;3.80;;
25439;SDS011;13365;52.208;5.488;2023-07-29T08:37:01;5.20;;;3.33;;
25439;SDS011;13365;52.208;5.488;2023-07-29T08:39:27;4.65;;;3.03;;
25439;SDS011;13365;52.208;5.488;2023-07-29T08:42:06;6.97;;;3.90;;
25439;SDS011;13365;52.208;5.488;2023-07-29T08:44:36;5.15;;;3.30;;
25439;SDS011;13365;52.208;5.488;2023-07-29T08:47:06;4.90;;;2.90;;
25439;SDS011;13365;52.208;5.488;2023-07-29T08:49:31;5.47;;;2.58;;
25439;SDS011;13365;52.208;5.488;2023-07-29T08:51:57;9.82;;;2.72;;
25439;SDS011;13365;52.208;5.488;2023-07-29T08:54:24;8.57;;;2.60;;
25439;SDS011;13365;52.208;5.488;2023-07-29T08:56:49;6.40;;;2.30;;
25439;SDS011;13365;52.208;5.488;2023-07-29T08:59:15;5.28;;;2.00;;
25439;SDS011;13365;52.208;5.488;2023-07-29T09:01:42;4.38;;;2.08;;
25439;SDS011;13365;52.208;5.488;2023-07-29T09:04:08;7.00;;;2.22;;
25439;SDS011;13365;52.208;5.488;2023-07-29T09:06:34;4.47;;;2.20;;
25439;SDS011;13365;52.208;5.488;2023-07-29T09:09:00;4.85;;;2.47;;
25439;SDS011;13365;52.208;5.488;2023-07-29T09:11:27;5.80;;;2.67;;
25439;SDS011;13365;52.208;5.488;2023-07-29T09:13:53;5.57;;;2.17;;
25439;SDS011;13365;52.208;5.488;2023-07-29T09:16:20;5.95;;;2.47;;
25439;SDS011;13365;52.208;5.488;2023-07-29T09:18:49;3.17;;;2.10;;
25439;SDS011;13365;52.208;5.488;2023-07-29T09:21:16;4.50;;;2.40;;
25439;SDS011;13365;52.208;5.488;2023-07-29T09:23:43;5.20;;;2.75;;
25439;SDS011;13365;52.208;5.488;2023-07-29T09:26:09;8.48;;;2.50;;
25439;SDS011;13365;52.208;5.488;2023-07-29T09:28:36;5.47;;;2.40;;
25439;SDS011;13365;52.208;5.488;2023-07-29T09:31:03;10.13;;;3.17;;
25439;SDS011;13365;52.208;5.488;2023-07-29T09:33:30;4.55;;;2.22;;
25439;SDS011;13365;52.208;5.488;2023-07-29T09:36:08;5.15;;;2.47;;
25439;SDS011;13365;52.208;5.488;2023-07-29T09:38:34;3.85;;;2.15;;
25439;SDS011;13365;52.208;5.488;2023-07-29T09:41:01;6.65;;;2.50;;
25439;SDS011;13365;52.208;5.488;2023-07-29T09:43:30;4.55;;;2.40;;
25439;SDS011;13365;52.208;5.488;2023-07-29T09:46:01;5.20;;;2.63;;
25439;SDS011;13365;52.208;5.488;2023-07-29T09:48:35;3.45;;;2.40;;
25439;SDS011;13365;52.208;5.488;2023-07-29T09:51:14;5.20;;;2.67;;
25439;SDS011;13365;52.208;5.488;2023-07-29T09:53:41;4.45;;;2.13;;
25439;SDS011;13365;52.208;5.488;2023-07-29T09:56:08;3.88;;;2.10;;
25439;SDS011;13365;52.208;5.488;2023-07-29T09:58:34;5.15;;;2.20;;
25439;SDS011;13365;52.208;5.488;2023-07-29T10:01:02;4.18;;;2.08;;
25439;SDS011;13365;52.208;5.488;2023-07-29T10:03:29;5.13;;;2.40;;
25439;SDS011;13365;52.208;5.488;2023-07-29T10:05:56;5.38;;;2.40;;
25439;SDS011;13365;52.208;5.488;2023-07-29T10:08:29;8.55;;;2.60;;
25439;SDS011;13365;52.208;5.488;2023-07-29T10:11:04;4.47;;;2.30;;
25439;SDS011;13365;52.208;5.488;2023-07-29T10:13:31;5.32;;;2.05;;
25439;SDS011;13365;52.208;5.488;2023-07-29T10:15:58;6.32;;;2.53;;
25439;SDS011;13365;52.208;5.488;2023-07-29T10:18:24;3.60;;;2.35;;
25439;SDS011;13365;52.208;5.488;2023-07-29T10:20:51;4.50;;;2.40;;
25439;SDS011;13365;52.208;5.488;2023-07-29T10:23:19;3.53;;;2.15;;
25439;SDS011;13365;52.208;5.488;2023-07-29T10:25:47;4.32;;;2.15;;
25439;SDS011;13365;52.208;5.488;2023-07-29T10:28:20;5.10;;;1.73;;
25439;SDS011;13365;52.208;5.488;2023-07-29T10:30:47;3.20;;;1.83;;
25439;SDS011;13365;52.208;5.488;2023-07-29T10:33:13;4.47;;;1.95;;
25439;SDS011;13365;52.208;5.488;2023-07-29T10:35:39;3.95;;;1.70;;
25439;SDS011;13365;52.208;5.488;2023-07-29T10:38:05;3.08;;;1.60;;
25439;SDS011;13365;52.208;5.488;2023-07-29T10:40:45;4.43;;;1.90;;
25439;SDS011;13365;52.208;5.488;2023-07-29T10:43:28;3.80;;;1.48;;
25439;SDS011;13365;52.208;5.488;2023-07-29T10:46:14;6.30;;;1.90;;
25439;SDS011;13365;52.208;5.488;2023-07-29T10:48:51;5.88;;;2.22;;
25439;SDS011;13365;52.208;5.488;2023-07-29T10:51:28;4.28;;;2.20;;
25439;SDS011;13365;52.208;5.488;2023-07-29T10:54:11;7.43;;;3.33;;
25439;SDS011;13365;52.208;5.488;2023-07-29T10:56:49;4.13;;;2.92;;
25439;SDS011;13365;52.208;5.488;2023-07-29T11:01:42;4.15;;;3.00;;
25439;SDS011;13365;52.208;5.488;2023-07-29T11:09:42;6.50;;;3.40;;
25439;SDS011;13365;52.208;5.488;2023-07-29T11:12:50;8.63;;;3.83;;
25439;SDS011;13365;52.208;5.488;2023-07-29T11:17:49;4.60;;;3.45;;
25439;SDS011;13365;52.208;5.488;2023-07-29T11:20:24;12.88;;;4.32;;
25439;SDS011;13365;52.208;5.488;2023-07-29T11:22:57;9.65;;;4.80;;
25439;SDS011;13365;52.208;5.488;2023-07-29T11:25:25;8.43;;;4.30;;
25439;SDS011;13365;52.208;5.488;2023-07-29T11:27:52;5.93;;;4.65;;
25439;SDS011;13365;52.208;5.488;2023-07-29T11:30:18;6.22;;;5.38;;
25439;SDS011;13365;52.208;5.488;2023-07-29T11:32:44;6.78;;;5.13;;
25439;SDS011;13365;52.208;5.488;2023-07-29T11:35:17;4.70;;;3.90;;
25439;SDS011;13365;52.208;5.488;2023-07-29T11:37:47;5.80;;;3.45;;
25439;SDS011;13365;52.208;5.488;2023-07-29T11:40:19;5.20;;;2.65;;
25439;SDS011;13365;52.208;5.488;2023-07-29T11:42:50;4.10;;;2.30;;
25439;SDS011;13365;52.208;5.488;2023-07-29T11:45:16;5.72;;;2.60;;
25439;SDS011;13365;52.208;5.488;2023-07-29T11:47:42;3.13;;;1.50;;
25439;SDS011;13365;52.208;5.488;2023-07-29T11:50:09;2.42;;;1.20;;
25439;SDS011;13365;52.208;5.488;2023-07-29T11:52:35;5.43;;;1.08;;
25439;SDS011;13365;52.208;5.488;2023-07-29T11:55:02;5.88;;;1.27;;
25439;SDS011;13365;52.208;5.488;2023-07-29T11:57:29;2.95;;;0.93;;
25439;SDS011;13365;52.208;5.488;2023-07-29T11:59:56;1.17;;;0.80;;
25439;SDS011;13365;52.208;5.488;2023-07-29T12:02:22;5.18;;;0.98;;
25439;SDS011;13365;52.208;5.488;2023-07-29T12:04:49;1.08;;;0.88;;
25439;SDS011;13365;52.208;5.488;2023-07-29T12:07:16;6.70;;;0.90;;
25439;SDS011;13365;52.208;5.488;2023-07-29T12:09:42;2.75;;;0.90;;
25439;SDS011;13365;52.208;5.488;2023-07-29T12:12:08;5.63;;;1.23;;
25439;SDS011;13365;52.208;5.488;2023-07-29T12:14:34;2.45;;;1.17;;
25439;SDS011;13365;52.208;5.488;2023-07-29T12:17:00;2.45;;;1.73;;
25439;SDS011;13365;52.208;5.488;2023-07-29T12:19:33;2.70;;;1.45;;
25439;SDS011;13365;52.208;5.488;2023-07-29T12:22:03;1.45;;;1.02;;
25439;SDS011;13365;52.208;5.488;2023-07-29T12:24:30;5.43;;;0.93;;
25439;SDS011;13365;52.208;5.488;2023-07-29T12:26:56;2.42;;;1.48;;
25439;SDS011;13365;52.208;5.488;2023-07-29T12:29:22;5.47;;;1.05;;
25439;SDS011;13365;52.208;5.488;2023-07-29T12:31:48;1.98;;;0.90;;
25439;SDS011;13365;52.208;5.488;2023-07-29T12:34:20;2.40;;;1.00;;
25439;SDS011;13365;52.208;5.488;2023-07-29T12:36:50;0.68;;;0.63;;
25439;SDS011;13365;52.208;5.488;2023-07-29T12:39:20;1.02;;;0.77;;
25439;SDS011;13365;52.208;5.488;2023-07-29T12:41:51;2.58;;;0.70;;
25439;SDS011;13365;52.208;5.488;2023-07-29T12:44:18;1.13;;;0.80;;
25439;SDS011;13365;52.208;5.488;2023-07-29T12:46:43;3.50;;;0.68;;
25439;SDS011;13365;52.208;5.488;2023-07-29T12:49:09;2.95;;;0.90;;
25439;SDS011;13365;52.208;5.488;2023-07-29T12:51:35;1.48;;;0.90;;
25439;SDS011;13365;52.208;5.488;2023-07-29T12:54:02;0.98;;;0.70;;
25439;SDS011;13365;52.208;5.488;2023-07-29T12:56:28;1.58;;;0.88;;
25439;SDS011;13365;52.208;5.488;2023-07-29T12:58:56;0.90;;;0.80;;
25439;SDS011;13365;52.208;5.488;2023-07-29T13:01:22;1.92;;;1.13;;
25439;SDS011;13365;52.208;5.488;2023-07-29T13:03:48;4.30;;;1.20;;
25439;SDS011;13365;52.208;5.488;2023-07-29T13:06:14;2.30;;;1.25;;
25439;SDS011;13365;52.208;5.488;2023-07-29T13:08:40;3.05;;;1.35;;
25439;SDS011;13365;52.208;5.488;2023-07-29T13:11:06;4.70;;;1.27;;
25439;SDS011;13365;52.208;5.488;2023-07-29T13:13:32;2.33;;;1.25;;
25439;SDS011;13365;52.208;5.488;2023-07-29T13:15:58;4.13;;;1.20;;
25439;SDS011;13365;52.208;5.488;2023-07-29T13:18:23;1.27;;;1.00;;
25439;SDS011;13365;52.208;5.488;2023-07-29T13:20:49;2.15;;;1.15;;
25439;SDS011;13365;52.208;5.488;2023-07-29T13:23:15;1.50;;;1.10;;
25439;SDS011;13365;52.208;5.488;2023-07-29T13:25:41;2.15;;;1.38;;
25439;SDS011;13365;52.208;5.488;2023-07-29T13:28:07;2.25;;;1.20;;
25439;SDS011;13365;52.208;5.488;2023-07-29T13:30:33;3.53;;;1.10;;
25439;SDS011;13365;52.208;5.488;2023-07-29T13:32:59;2.42;;;1.15;;
25439;SDS011;13365;52.208;5.488;2023-07-29T13:35:24;2.13;;;1.10;;
25439;SDS011;13365;52.208;5.488;2023-07-29T13:37:50;2.20;;;1.13;;
25439;SDS011;13365;52.208;5.488;2023-07-29T13:40:16;3.28;;;1.10;;
25439;SDS011;13365;52.208;5.488;2023-07-29T13:42:41;6.35;;;1.70;;
25439;SDS011;13365;52.208;5.488;2023-07-29T13:45:07;2.42;;;1.45;;
25439;SDS011;13365;52.208;5.488;2023-07-29T13:47:33;4.88;;;1.23;;
25439;SDS011;13365;52.208;5.488;2023-07-29T13:49:59;5.90;;;1.40;;
25439;SDS011;13365;52.208;5.488;2023-07-29T13:52:25;2.70;;;1.27;;
25439;SDS011;13365;52.208;5.488;2023-07-29T13:54:51;2.40;;;1.10;;
25439;SDS011;13365;52.208;5.488;2023-07-29T13:57:16;2.58;;;1.20;;
25439;SDS011;13365;52.208;5.488;2023-07-29T13:59:42;2.28;;;1.58;;
25439;SDS011;13365;52.208;5.488;2023-07-29T14:02:07;2.72;;;1.60;;
25439;SDS011;13365;52.208;5.488;2023-07-29T14:04:33;1.73;;;1.33;;
25439;SDS011;13365;52.208;5.488;2023-07-29T14:06:59;2.28;;;1.33;;
25439;SDS011;13365;52.208;5.488;2023-07-29T14:09:25;4.35;;;1.65;;
25439;SDS011;13365;52.208;5.488;2023-07-29T14:11:51;3.08;;;1.70;;
25439;SDS011;13365;52.208;5.488;2023-07-29T14:14:17;2.65;;;1.67;;
25439;SDS011;13365;52.208;5.488;2023-07-29T14:16:42;4.38;;;1.52;;
25439;SDS011;13365;52.208;5.488;2023-07-29T14:19:08;2.15;;;1.55;;
25439;SDS011;13365;52.208;5.488;2023-07-29T14:21:34;2.70;;;1.77;;
25439;SDS011;13365;52.208;5.488;2023-07-29T14:24:00;4.22;;;1.85;;
25439;SDS011;13365;52.208;5.488;2023-07-29T14:26:25;10.27;;;1.63;;
25439;SDS011;13365;52.208;5.488;2023-07-29T14:28:51;2.72;;;1.38;;
25439;SDS011;13365;52.208;5.488;2023-07-29T14:31:16;2.45;;;1.17;;
25439;SDS011;13365;52.208;5.488;2023-07-29T14:33:42;3.65;;;1.30;;
25439;SDS011;13365;52.208;5.488;2023-07-29T14:36:08;2.95;;;1.70;;
25439;SDS011;13365;52.208;5.488;2023-07-29T14:38:34;2.97;;;1.10;;
25439;SDS011;13365;52.208;5.488;2023-07-29T14:41:00;4.32;;;1.80;;
25439;SDS011;13365;52.208;5.488;2023-07-29T14:43:26;2.05;;;0.90;;
25439;SDS011;13365;52.208;5.488;2023-07-29T14:45:52;4.70;;;1.17;;
25439;SDS011;13365;52.208;5.488;2023-07-29T14:48:17;2.65;;;0.95;;
25439;SDS011;13365;52.208;5.488;2023-07-29T14:50:43;5.45;;;1.17;;
25439;SDS011;13365;52.208;5.488;2023-07-29T14:53:09;1.42;;;0.90;;
25439;SDS011;13365;52.208;5.488;2023-07-29T14:55:35;3.50;;;0.82;;
25439;SDS011;13365;52.208;5.488;2023-07-29T14:58:01;1.95;;;0.80;;
25439;SDS011;13365;52.208;5.488;2023-07-29T15:00:27;1.88;;;0.95;;
25439;SDS011;13365;52.208;5.488;2023-07-29T15:02:52;2.20;;;1.00;;